createdAt,value
2023-03-30T00:00:15.235Z,3.72
2023-03-30T00:03:19.678Z,3.30
2023-03-30T00:06:22.826Z,3.70
2023-03-30T00:09:32.550Z,3.25
2023-03-30T00:12:34.904Z,3.70
2023-03-30T00:15:37.707Z,3.40
2023-03-30T00:18:40.901Z,3.62
2023-03-30T00:21:43.935Z,4.10
2023-03-30T00:24:46.648Z,3.67
2023-03-30T00:27:49.362Z,3.70
2023-03-30T00:30:53.654Z,3.70
2023-03-30T00:33:56.896Z,3.50
2023-03-30T00:36:59.397Z,4.00
2023-03-30T00:40:04.415Z,3.83
2023-03-30T00:43:11.749Z,3.15
2023-03-30T00:46:14.437Z,3.70
2023-03-30T00:49:16.842Z,3.20
2023-03-30T00:52:24.963Z,3.20
2023-03-30T00:55:30.999Z,3.90
2023-03-30T00:58:35.254Z,4.25
2023-03-30T01:01:40.752Z,3.85
2023-03-30T01:04:44.636Z,3.95
2023-03-30T01:07:49.893Z,4.20
2023-03-30T01:10:53.512Z,3.85
2023-03-30T01:14:00.169Z,3.90
2023-03-30T01:17:19.364Z,3.28
2023-03-30T01:20:46.938Z,3.80
2023-03-30T01:24:11.295Z,3.60
2023-03-30T01:28:04.595Z,3.03
2023-03-30T01:31:29.064Z,3.47
2023-03-30T01:35:16.000Z,2.87
2023-03-30T01:38:30.742Z,3.25
2023-03-30T01:41:45.396Z,3.30
2023-03-30T01:45:05.241Z,4.00
2023-03-30T01:48:49.278Z,3.50
2023-03-30T01:52:05.639Z,4.07
2023-03-30T01:55:19.737Z,4.07
2023-03-30T01:58:43.159Z,3.50
2023-03-30T02:01:50.303Z,3.65
2023-03-30T02:04:57.732Z,3.97
2023-03-30T02:08:08.518Z,3.78
2023-03-30T02:11:12.807Z,3.20
2023-03-30T02:14:20.192Z,3.83
2023-03-30T02:17:23.693Z,4.80
2023-03-30T02:20:28.940Z,3.15
2023-03-30T02:23:38.530Z,3.33
2023-03-30T02:26:41.475Z,3.28
2023-03-30T02:29:46.492Z,3.70
2023-03-30T02:32:55.444Z,3.60
2023-03-30T02:36:11.120Z,3.85
2023-03-30T02:39:23.133Z,3.97
2023-03-30T02:42:29.639Z,3.17
2023-03-30T02:46:04.290Z,2.83
2023-03-30T02:49:38.074Z,2.92
2023-03-30T02:53:04.169Z,3.30
2023-03-30T02:56:34.068Z,2.97
2023-03-30T02:59:50.822Z,3.83
2023-03-30T03:02:58.586Z,3.30
2023-03-30T03:06:03.148Z,4.03
2023-03-30T03:09:05.815Z,4.28
2023-03-30T03:12:08.768Z,3.10
2023-03-30T03:15:12.571Z,3.47
2023-03-30T03:18:16.324Z,3.53
2023-03-30T03:21:18.817Z,2.92
2023-03-30T03:24:21.783Z,3.92
2023-03-30T03:27:26.372Z,3.47
2023-03-30T03:30:29.806Z,3.50
2023-03-30T03:33:33.960Z,3.93
2023-03-30T03:36:37.318Z,3.25
2023-03-30T03:39:40.024Z,3.50
2023-03-30T03:42:43.215Z,3.17
2023-03-30T03:45:46.836Z,3.47
2023-03-30T03:48:49.484Z,3.60
2023-03-30T03:51:52.047Z,3.47
2023-03-30T03:54:54.741Z,4.10
2023-03-30T03:57:57.386Z,3.65
2023-03-30T04:01:01.146Z,3.53
2023-03-30T04:04:04.062Z,2.57
2023-03-30T04:07:06.579Z,3.37
2023-03-30T04:10:09.375Z,3.67
2023-03-30T04:13:12.023Z,3.62
2023-03-30T04:16:14.991Z,3.42
2023-03-30T04:19:19.484Z,3.73
2023-03-30T04:22:26.598Z,4.00
2023-03-30T04:25:29.551Z,4.18
2023-03-30T04:28:34.751Z,3.28
2023-03-30T04:31:38.575Z,4.05
2023-03-30T04:34:42.765Z,3.90
2023-03-30T04:37:46.107Z,4.05
2023-03-30T04:40:50.148Z,4.32
2023-03-30T04:43:52.955Z,3.87
2023-03-30T04:46:56.756Z,3.90
2023-03-30T04:50:00.133Z,2.90
2023-03-30T04:53:05.782Z,3.60
2023-03-30T04:56:08.491Z,2.78
2023-03-30T04:59:11.426Z,2.42
2023-03-30T05:02:14.820Z,3.80
2023-03-30T05:05:17.687Z,2.97
2023-03-30T05:08:20.885Z,3.65
2023-03-30T05:11:23.703Z,4.35
2023-03-30T05:14:26.278Z,3.58
2023-03-30T05:17:34.081Z,3.67
2023-03-30T05:20:36.961Z,3.87
2023-03-30T05:23:40.054Z,3.95
2023-03-30T05:26:43.888Z,4.28
2023-03-30T05:29:46.668Z,3.87
2023-03-30T05:32:49.847Z,3.50
2023-03-30T05:35:53.172Z,2.63
2023-03-30T05:38:56.316Z,3.70
2023-03-30T05:41:59.026Z,2.62
2023-03-30T05:45:02.025Z,3.22
2023-03-30T05:48:07.095Z,3.62
2023-03-30T05:51:10.201Z,4.27
2023-03-30T05:54:15.480Z,3.90
2023-03-30T05:57:19.236Z,4.78
2023-03-30T06:00:23.800Z,4.00
2023-03-30T06:03:28.332Z,3.33
2023-03-30T06:06:31.674Z,3.13
2023-03-30T06:09:34.690Z,3.75
2023-03-30T06:12:40.153Z,3.85
2023-03-30T06:15:45.786Z,3.83
2023-03-30T06:18:49.477Z,3.80
2023-03-30T06:21:52.274Z,3.60
2023-03-30T06:24:54.973Z,3.65
2023-03-30T06:27:57.967Z,3.37
2023-03-30T06:31:03.170Z,2.75
2023-03-30T06:34:06.776Z,3.60
2023-03-30T06:37:09.261Z,3.60
2023-03-30T06:40:16.107Z,3.20
2023-03-30T06:43:21.288Z,3.78
2023-03-30T06:46:27.995Z,2.22
2023-03-30T06:49:31.096Z,3.10
2023-03-30T06:52:38.196Z,3.63
2023-03-30T06:55:42.256Z,3.95
2023-03-30T06:58:46.877Z,4.32
2023-03-30T07:01:49.510Z,4.57
2023-03-30T07:04:53.085Z,3.85
2023-03-30T07:07:57.094Z,3.63
2023-03-30T07:11:00.251Z,4.35
2023-03-30T07:14:05.448Z,4.62
2023-03-30T07:17:08.716Z,3.67
2023-03-30T07:20:16.048Z,4.18
2023-03-30T07:23:21.800Z,3.70
2023-03-30T07:26:24.647Z,3.65
2023-03-30T07:29:28.937Z,3.53
2023-03-30T07:32:32.095Z,3.65
2023-03-30T07:35:35.431Z,4.20
2023-03-30T07:38:38.245Z,3.50
2023-03-30T07:41:41.149Z,3.47
2023-03-30T07:44:43.684Z,3.65
2023-03-30T07:47:52.030Z,3.62
2023-03-30T07:51:05.832Z,3.30
2023-03-30T07:54:13.619Z,3.67
2023-03-30T07:57:18.930Z,3.65
2023-03-30T08:00:22.308Z,3.12
2023-03-30T08:03:32.005Z,3.72
2023-03-30T08:06:35.168Z,3.60
2023-03-30T08:09:38.196Z,2.87
2023-03-30T08:12:41.167Z,2.55
2023-03-30T08:15:43.996Z,2.80
2023-03-30T08:18:47.351Z,2.70
2023-03-30T08:21:50.255Z,2.97
2023-03-30T08:24:55.538Z,2.90
2023-03-30T08:27:58.279Z,3.00
2023-03-30T08:31:06.528Z,3.28
2023-03-30T08:34:10.193Z,2.45
2023-03-30T08:37:12.595Z,3.50
2023-03-30T08:40:18.648Z,2.50
2023-03-30T08:43:42.779Z,3.10
2023-03-30T08:46:47.586Z,3.20
2023-03-30T08:50:06.572Z,3.15
2023-03-30T08:53:09.476Z,2.30
2023-03-30T08:56:21.858Z,2.97
2023-03-30T08:59:43.686Z,3.00
2023-03-30T09:02:51.740Z,3.08
2023-03-30T09:06:27.340Z,2.87
2023-03-30T09:09:32.462Z,2.80
2023-03-30T09:12:47.863Z,3.40
2023-03-30T09:15:57.775Z,2.67
2023-03-30T09:19:03.256Z,2.70
2023-03-30T09:22:07.066Z,3.15
2023-03-30T09:25:37.044Z,2.87
2023-03-30T09:28:48.343Z,2.70
2023-03-30T09:32:02.208Z,2.80
2023-03-30T09:35:26.770Z,3.40
2023-03-30T09:38:32.339Z,2.47
2023-03-30T09:41:41.769Z,2.60
2023-03-30T09:45:07.221Z,3.30
2023-03-30T09:48:09.905Z,2.67
2023-03-30T09:51:26.675Z,2.65
2023-03-30T09:54:39.175Z,2.55
2023-03-30T09:57:42.046Z,3.10
2023-03-30T10:00:45.794Z,2.50
2023-03-30T10:04:12.779Z,3.00
2023-03-30T10:07:21.443Z,3.40
2023-03-30T10:10:26.894Z,2.90
2023-03-30T10:13:36.552Z,2.55
2023-03-30T10:16:43.839Z,2.90
2023-03-30T10:19:49.354Z,3.20
2023-03-30T10:23:12.698Z,2.83
2023-03-30T10:26:20.682Z,2.95
2023-03-30T10:29:27.118Z,2.65
2023-03-30T10:32:31.879Z,2.80
2023-03-30T10:35:37.334Z,2.67
2023-03-30T10:38:42.111Z,2.65
2023-03-30T10:41:47.253Z,2.47
2023-03-30T10:44:53.887Z,2.60
2023-03-30T10:48:20.664Z,2.40
2023-03-30T10:51:31.950Z,2.97
2023-03-30T10:54:56.850Z,2.25
2023-03-30T10:58:25.053Z,3.00
2023-03-30T11:02:05.755Z,2.92
2023-03-30T11:05:19.280Z,2.57
2023-03-30T11:08:28.709Z,3.10
2023-03-30T11:11:47.510Z,2.75
2023-03-30T11:14:56.538Z,2.70
2023-03-30T11:18:01.601Z,2.67
2023-03-30T11:21:23.244Z,2.53
2023-03-30T11:24:28.109Z,3.12
2023-03-30T11:27:39.424Z,3.08
2023-03-30T11:30:43.645Z,2.95
2023-03-30T11:33:55.986Z,3.05
2023-03-30T11:37:21.213Z,3.23
2023-03-30T11:40:35.988Z,3.12
2023-03-30T11:43:38.464Z,2.62
2023-03-30T11:46:53.234Z,2.90
2023-03-30T11:50:04.743Z,2.58
2023-03-30T11:53:08.803Z,2.53
2023-03-30T11:56:26.125Z,2.87
2023-03-30T11:59:39.926Z,2.47
2023-03-30T12:02:56.136Z,2.20
2023-03-30T12:06:17.564Z,2.50
2023-03-30T12:09:48.108Z,2.60
2023-03-30T12:12:54.018Z,2.45
2023-03-30T12:16:03.752Z,2.30
2023-03-30T12:19:24.913Z,2.40
2023-03-30T12:22:36.821Z,2.50
2023-03-30T12:26:10.148Z,2.30
2023-03-30T12:32:29.019Z,2.80
2023-03-30T12:35:49.986Z,2.87
2023-03-30T12:38:58.083Z,2.17
2023-03-30T12:42:16.052Z,2.20
2023-03-30T12:45:28.893Z,3.05
2023-03-30T12:48:54.500Z,2.60
2023-03-30T12:52:38.308Z,2.85
2023-03-30T12:55:43.530Z,2.60
2023-03-30T12:59:20.335Z,2.60
2023-03-30T13:02:47.322Z,2.50
2023-03-30T13:05:53.434Z,2.40
2023-03-30T13:09:16.185Z,3.12
2023-03-30T13:12:31.027Z,3.22
2023-03-30T13:15:57.997Z,2.57
2023-03-30T13:19:14.189Z,2.40
2023-03-30T13:22:16.492Z,2.70
2023-03-30T13:25:29.515Z,2.35
2023-03-30T13:28:36.724Z,2.62
2023-03-30T13:31:45.121Z,2.63
2023-03-30T13:35:03.648Z,2.30
2023-03-30T13:38:30.258Z,2.70
2023-03-30T13:41:50.688Z,2.20
2023-03-30T13:45:06.034Z,2.40
2023-03-30T13:48:56.058Z,2.90
2023-03-30T13:52:22.611Z,1.60
2023-03-30T13:55:33.262Z,2.42
2023-03-30T13:58:37.365Z,1.90
2023-03-30T14:01:40.990Z,2.45
2023-03-30T14:04:49.176Z,2.30
2023-03-30T14:07:59.485Z,1.90
2023-03-30T14:11:08.519Z,2.25
2023-03-30T14:14:38.074Z,2.70
2023-03-30T14:17:41.118Z,2.05
2023-03-30T14:21:09.915Z,2.40
2023-03-30T14:24:26.977Z,2.30
2023-03-30T14:27:35.574Z,2.50
2023-03-30T14:30:38.261Z,2.00
2023-03-30T14:33:41.368Z,1.87
2023-03-30T14:36:45.951Z,1.83
2023-03-30T14:39:54.663Z,1.92
2023-03-30T14:42:57.452Z,2.12
2023-03-30T14:46:04.761Z,2.40
2023-03-30T14:49:14.992Z,2.33
2023-03-30T14:52:23.519Z,2.50
2023-03-30T14:55:27.366Z,2.20
2023-03-30T14:58:33.652Z,2.58
2023-03-30T15:01:36.683Z,2.65
2023-03-30T15:04:39.534Z,3.03
2023-03-30T15:07:48.093Z,2.83
2023-03-30T15:10:55.182Z,3.08
2023-03-30T15:14:03.144Z,3.60
2023-03-30T15:17:16.683Z,3.55
2023-03-30T15:20:20.179Z,3.55
2023-03-30T15:23:24.588Z,3.83
2023-03-30T15:26:28.314Z,3.40
2023-03-30T15:29:31.892Z,3.72
2023-03-30T15:32:39.349Z,4.00
2023-03-30T15:35:42.522Z,3.70
2023-03-30T15:38:49.891Z,3.83
2023-03-30T15:41:52.244Z,3.65
2023-03-30T15:45:13.063Z,4.03
2023-03-30T15:48:21.961Z,4.03
2023-03-30T15:51:24.627Z,4.12
2023-03-30T15:54:38.598Z,3.63
2023-03-30T15:57:47.714Z,3.55
2023-03-30T16:00:50.927Z,3.62
2023-03-30T16:03:56.909Z,3.10
2023-03-30T16:06:59.565Z,3.30
2023-03-30T16:10:02.201Z,4.00
2023-03-30T16:13:07.014Z,2.40
2023-03-30T16:16:11.170Z,3.08
2023-03-30T16:19:16.375Z,3.30
2023-03-30T16:22:19.047Z,3.53
2023-03-30T16:25:34.071Z,3.50
2023-03-30T16:28:42.843Z,3.80
2023-03-30T16:31:45.722Z,3.55
2023-03-30T16:34:48.603Z,3.33
2023-03-30T16:37:51.013Z,3.78
2023-03-30T16:40:57.143Z,3.90
2023-03-30T16:43:59.515Z,3.70
2023-03-30T16:47:02.216Z,3.65
2023-03-30T16:50:19.633Z,3.03
2023-03-30T16:53:23.442Z,3.20
2023-03-30T16:56:26.181Z,4.30
2023-03-30T16:59:30.813Z,3.53
2023-03-30T17:02:33.518Z,4.03
2023-03-30T17:05:36.326Z,2.85
2023-03-30T17:08:39.850Z,3.30
2023-03-30T17:11:44.472Z,3.70
2023-03-30T17:14:46.757Z,3.50
2023-03-30T17:17:49.721Z,3.45
2023-03-30T17:20:54.507Z,3.75
2023-03-30T17:23:57.950Z,3.50
2023-03-30T17:27:00.672Z,3.53
2023-03-30T17:30:05.446Z,3.60
2023-03-30T17:33:12.860Z,3.35
2023-03-30T17:36:20.589Z,3.20
2023-03-30T17:39:22.931Z,3.15
2023-03-30T17:42:25.761Z,3.57
2023-03-30T17:45:29.388Z,3.50
2023-03-30T17:48:32.168Z,3.50
2023-03-30T17:51:34.589Z,3.53
2023-03-30T17:54:38.263Z,3.25
2023-03-30T17:57:40.974Z,2.73
2023-03-30T18:00:45.943Z,3.17
2023-03-30T18:03:48.778Z,3.25
2023-03-30T18:06:51.224Z,3.40
2023-03-30T18:09:53.891Z,3.17
2023-03-30T18:12:57.625Z,3.30
2023-03-30T18:16:00.932Z,3.10
2023-03-30T18:19:03.653Z,3.33
2023-03-30T18:22:06.727Z,2.92
2023-03-30T18:25:14.140Z,4.10
2023-03-30T18:28:23.902Z,3.43
2023-03-30T18:31:26.347Z,4.68
2023-03-30T18:34:29.016Z,4.68
2023-03-30T18:37:31.373Z,4.82
2023-03-30T18:40:37.149Z,4.80
2023-03-30T18:43:39.526Z,5.03
2023-03-30T18:46:51.911Z,4.82
2023-03-30T18:49:54.517Z,4.37
2023-03-30T18:52:57.248Z,4.30
2023-03-30T18:56:01.684Z,4.40
2023-03-30T18:59:06.408Z,4.27
2023-03-30T19:02:09.353Z,4.50
2023-03-30T19:05:12.025Z,4.37
2023-03-30T19:08:17.422Z,4.68
2023-03-30T19:11:23.385Z,5.05
2023-03-30T19:14:25.791Z,5.03
2023-03-30T19:17:28.642Z,5.53
2023-03-30T19:20:33.805Z,4.68
2023-03-30T19:23:36.505Z,5.55
2023-03-30T19:26:38.860Z,4.87
2023-03-30T19:29:41.492Z,6.07
2023-03-30T19:32:44.602Z,6.45
2023-03-30T19:35:47.445Z,6.30
2023-03-30T19:38:49.883Z,5.95
2023-03-30T19:41:52.780Z,6.10
2023-03-30T19:44:55.543Z,5.90
2023-03-30T19:47:58.320Z,4.70
2023-03-30T19:51:00.739Z,6.05
2023-03-30T19:54:03.562Z,5.35
2023-03-30T19:57:06.197Z,5.30
2023-03-30T20:00:12.801Z,5.83
2023-03-30T20:03:15.850Z,5.72
2023-03-30T20:06:18.375Z,6.20
2023-03-30T20:09:21.244Z,5.72
2023-03-30T20:12:23.743Z,5.53
2023-03-30T20:15:26.748Z,5.40
2023-03-30T20:18:32.057Z,5.45
2023-03-30T20:21:34.723Z,5.12
2023-03-30T20:24:39.062Z,5.55
2023-03-30T20:27:42.144Z,5.55
2023-03-30T20:30:44.591Z,5.67
2023-03-30T20:33:47.361Z,4.87
2023-03-30T20:36:50.198Z,4.90
2023-03-30T20:39:52.951Z,4.57
2023-03-30T20:43:02.053Z,4.82
2023-03-30T20:46:09.670Z,5.20
2023-03-30T20:49:12.974Z,4.40
2023-03-30T20:52:16.981Z,4.20
2023-03-30T20:55:19.486Z,4.30
2023-03-30T20:58:23.244Z,4.25
2023-03-30T21:01:28.439Z,4.10
2023-03-30T21:04:33.821Z,4.35
2023-03-30T21:07:38.400Z,4.78
2023-03-30T21:10:42.941Z,4.50
2023-03-30T21:13:46.283Z,3.45
2023-03-30T21:16:48.924Z,3.83
2023-03-30T21:19:51.349Z,4.05
2023-03-30T21:22:54.056Z,4.25
2023-03-30T21:25:59.313Z,4.43
2023-03-30T21:29:03.411Z,3.67
2023-03-30T21:32:05.814Z,3.80
2023-03-30T21:35:08.812Z,3.90
2023-03-30T21:38:11.365Z,3.53
2023-03-30T21:41:16.384Z,3.55
2023-03-30T21:44:18.820Z,4.18
2023-03-30T21:47:21.439Z,4.10
2023-03-30T21:50:24.073Z,4.82
2023-03-30T21:53:28.510Z,4.15
2023-03-30T21:56:31.352Z,3.80
2023-03-30T21:59:34.048Z,4.47
2023-03-30T22:02:36.364Z,3.77
2023-03-30T22:05:40.343Z,4.18
2023-03-30T22:08:45.168Z,3.65
2023-03-30T22:11:47.960Z,3.92
2023-03-30T22:14:50.495Z,3.90
2023-03-30T22:17:53.280Z,3.70
2023-03-30T22:21:00.297Z,3.83
2023-03-30T22:24:05.892Z,4.05
2023-03-30T22:27:08.956Z,4.37
2023-03-30T22:30:12.309Z,3.47
2023-03-30T22:33:15.156Z,4.27
2023-03-30T22:36:30.025Z,3.80
2023-03-30T22:39:33.055Z,2.75
2023-03-30T22:42:36.045Z,3.85
2023-03-30T22:45:39.582Z,4.50
2023-03-30T22:48:42.429Z,4.30
2023-03-30T22:51:52.390Z,3.83
2023-03-30T22:54:55.845Z,4.43
2023-03-30T22:57:58.312Z,3.72
2023-03-30T23:01:02.493Z,3.85
2023-03-30T23:04:05.918Z,4.07
2023-03-30T23:07:08.864Z,4.00
2023-03-30T23:10:15.320Z,4.07
2023-03-30T23:13:17.979Z,4.20
2023-03-30T23:16:20.412Z,3.97
2023-03-30T23:19:25.990Z,3.67
2023-03-30T23:22:28.802Z,4.20
2023-03-30T23:25:31.413Z,4.10
2023-03-30T23:28:35.032Z,3.75
2023-03-30T23:31:37.759Z,3.97
2023-03-30T23:34:40.829Z,3.90
2023-03-30T23:37:45.579Z,4.35
2023-03-30T23:40:48.043Z,4.53
2023-03-30T23:43:51.564Z,4.32
2023-03-30T23:46:54.021Z,4.95
2023-03-30T23:49:56.753Z,4.93
2023-03-30T23:52:59.047Z,4.70
2023-03-30T23:56:06.357Z,4.78
2023-03-30T23:59:10.942Z,5.22
